sensor_id;sensor_type;location;lat;lon;timestamp;pressure;altitude;pressure_sealevel;temperature;humidity
24390;BME280;12510;56.468;-3.004;2023-04-01T00:01:03;99503.03;;;11.65;100.00
24390;BME280;12510;56.468;-3.004;2023-04-01T00:03:30;99499.00;;;11.38;100.00
24390;BME280;12510;56.468;-3.004;2023-04-01T00:05:58;99505.38;;;11.52;100.00
24390;BME280;12510;56.468;-3.004;2023-04-01T00:08:26;99503.50;;;11.69;100.00
24390;BME280;12510;56.468;-3.004;2023-04-01T00:10:53;99505.34;;;11.68;100.00
24390;BME280;12510;56.468;-3.004;2023-04-01T00:13:20;99508.53;;;11.95;100.00
24390;BME280;12510;56.468;-3.004;2023-04-01T00:15:47;99510.78;;;12.06;100.00
24390;BME280;12510;56.468;-3.004;2023-04-01T00:18:14;99502.88;;;12.06;100.00
24390;BME280;12510;56.468;-3.004;2023-04-01T00:20:46;99513.84;;;11.87;100.00
24390;BME280;12510;56.468;-3.004;2023-04-01T00:23:14;99523.09;;;11.83;100.00
24390;BME280;12510;56.468;-3.004;2023-04-01T00:25:40;99521.63;;;11.80;100.00
24390;BME280;12510;56.468;-3.004;2023-04-01T00:28:07;99529.53;;;11.80;100.00
24390;BME280;12510;56.468;-3.004;2023-04-01T00:30:35;99529.66;;;11.95;100.00
24390;BME280;12510;56.468;-3.004;2023-04-01T00:33:03;99533.47;;;11.84;100.00
24390;BME280;12510;56.468;-3.004;2023-04-01T00:35:29;99534.88;;;12.03;100.00
24390;BME280;12510;56.468;-3.004;2023-04-01T00:37:56;99535.03;;;12.33;100.00
24390;BME280;12510;56.468;-3.004;2023-04-01T00:42:52;99537.72;;;11.85;100.00
24390;BME280;12510;56.468;-3.004;2023-04-01T00:45:33;99536.50;;;12.13;100.00
24390;BME280;12510;56.468;-3.004;2023-04-01T00:48:06;99537.59;;;12.18;100.00
24390;BME280;12510;56.468;-3.004;2023-04-01T00:50:34;99542.53;;;12.21;100.00
24390;BME280;12510;56.468;-3.004;2023-04-01T00:53:03;99541.59;;;12.14;100.00
24390;BME280;12510;56.468;-3.004;2023-04-01T00:55:32;99553.41;;;11.95;100.00
24390;BME280;12510;56.468;-3.004;2023-04-01T00:58:02;99550.59;;;11.88;100.00
24390;BME280;12510;56.468;-3.004;2023-04-01T01:00:30;99550.91;;;11.46;100.00
24390;BME280;12510;56.468;-3.004;2023-04-01T01:02:57;99556.63;;;11.57;100.00
24390;BME280;12510;56.468;-3.004;2023-04-01T01:05:47;99559.00;;;12.00;100.00
24390;BME280;12510;56.468;-3.004;2023-04-01T01:11:10;99552.41;;;12.51;100.00
24390;BME280;12510;56.468;-3.004;2023-04-01T01:14:02;99556.34;;;12.55;100.00
24390;BME280;12510;56.468;-3.004;2023-04-01T01:16:38;99551.38;;;12.60;100.00
24390;BME280;12510;56.468;-3.004;2023-04-01T01:19:41;99556.81;;;11.48;100.00
24390;BME280;12510;56.468;-3.004;2023-04-01T01:22:39;99562.66;;;12.54;100.00
24390;BME280;12510;56.468;-3.004;2023-04-01T01:25:40;99558.72;;;12.50;100.00
24390;BME280;12510;56.468;-3.004;2023-04-01T01:33:57;99553.94;;;12.45;100.00
24390;BME280;12510;56.468;-3.004;2023-04-01T01:36:30;99558.63;;;12.35;100.00
24390;BME280;12510;56.468;-3.004;2023-04-01T01:38:58;99562.84;;;12.21;100.00
24390;BME280;12510;56.468;-3.004;2023-04-01T01:41:26;99561.44;;;12.33;100.00
24390;BME280;12510;56.468;-3.004;2023-04-01T01:43:55;99568.56;;;11.85;100.00
24390;BME280;12510;56.468;-3.004;2023-04-01T01:46:25;99573.97;;;11.35;100.00
24390;BME280;12510;56.468;-3.004;2023-04-01T01:48:53;99571.47;;;12.06;100.00
24390;BME280;12510;56.468;-3.004;2023-04-01T01:51:21;99571.75;;;12.51;100.00
24390;BME280;12510;56.468;-3.004;2023-04-01T01:53:49;99576.47;;;12.33;100.00
24390;BME280;12510;56.468;-3.004;2023-04-01T01:56:19;99576.25;;;12.66;100.00
24390;BME280;12510;56.468;-3.004;2023-04-01T01:59:03;99575.13;;;12.60;100.00
24390;BME280;12510;56.468;-3.004;2023-04-01T02:01:37;99577.38;;;12.71;100.00
24390;BME280;12510;56.468;-3.004;2023-04-01T02:04:11;99585.69;;;12.60;100.00
24390;BME280;12510;56.468;-3.004;2023-04-01T02:06:43;99585.75;;;12.52;100.00
24390;BME280;12510;56.468;-3.004;2023-04-01T02:09:11;99589.75;;;12.71;100.00
24390;BME280;12510;56.468;-3.004;2023-04-01T02:19:18;99594.53;;;12.44;100.00
24390;BME280;12510;56.468;-3.004;2023-04-01T02:21:52;99599.19;;;12.42;100.00
24390;BME280;12510;56.468;-3.004;2023-04-01T02:24:21;99597.72;;;12.63;100.00
24390;BME280;12510;56.468;-3.004;2023-04-01T02:26:50;99592.56;;;12.69;100.00
24390;BME280;12510;56.468;-3.004;2023-04-01T02:29:20;99601.09;;;12.80;100.00
24390;BME280;12510;56.468;-3.004;2023-04-01T02:31:49;99599.31;;;12.72;100.00
24390;BME280;12510;56.468;-3.004;2023-04-01T02:34:16;99604.09;;;12.77;100.00
24390;BME280;12510;56.468;-3.004;2023-04-01T02:36:43;99607.38;;;12.79;100.00
24390;BME280;12510;56.468;-3.004;2023-04-01T02:39:10;99613.06;;;12.67;100.00
24390;BME280;12510;56.468;-3.004;2023-04-01T02:41:43;99621.38;;;12.87;100.00
24390;BME280;12510;56.468;-3.004;2023-04-01T02:44:13;99616.00;;;12.72;100.00
24390;BME280;12510;56.468;-3.004;2023-04-01T02:46:39;99625.47;;;12.35;100.00
24390;BME280;12510;56.468;-3.004;2023-04-01T02:49:06;99628.56;;;12.70;100.00
24390;BME280;12510;56.468;-3.004;2023-04-01T02:51:33;99625.75;;;12.72;100.00
24390;BME280;12510;56.468;-3.004;2023-04-01T02:54:00;99628.63;;;12.62;100.00
24390;BME280;12510;56.468;-3.004;2023-04-01T02:56:27;99627.25;;;12.43;100.00
24390;BME280;12510;56.468;-3.004;2023-04-01T02:58:53;99625.88;;;12.79;100.00
24390;BME280;12510;56.468;-3.004;2023-04-01T03:01:21;99635.81;;;12.68;100.00
24390;BME280;12510;56.468;-3.004;2023-04-01T03:03:47;99636.06;;;12.27;100.00
24390;BME280;12510;56.468;-3.004;2023-04-01T03:06:15;99639.97;;;12.39;100.00
24390;BME280;12510;56.468;-3.004;2023-04-01T03:08:42;99640.59;;;12.50;100.00
24390;BME280;12510;56.468;-3.004;2023-04-01T03:11:09;99640.00;;;12.63;100.00
24390;BME280;12510;56.468;-3.004;2023-04-01T03:13:36;99641.88;;;12.54;100.00
24390;BME280;12510;56.468;-3.004;2023-04-01T03:16:03;99644.91;;;12.66;100.00
24390;BME280;12510;56.468;-3.004;2023-04-01T03:18:30;99634.03;;;12.69;100.00
24390;BME280;12510;56.468;-3.004;2023-04-01T03:20:57;99640.97;;;12.70;100.00
24390;BME280;12510;56.468;-3.004;2023-04-01T03:23:23;99647.78;;;12.56;100.00
24390;BME280;12510;56.468;-3.004;2023-04-01T03:25:50;99653.03;;;12.64;100.00
24390;BME280;12510;56.468;-3.004;2023-04-01T03:28:17;99648.81;;;12.47;100.00
24390;BME280;12510;56.468;-3.004;2023-04-01T03:30:43;99655.34;;;11.30;100.00
24390;BME280;12510;56.468;-3.004;2023-04-01T03:33:11;99666.41;;;11.17;100.00
24390;BME280;12510;56.468;-3.004;2023-04-01T03:35:38;99663.59;;;11.27;100.00
24390;BME280;12510;56.468;-3.004;2023-04-01T03:38:06;99672.16;;;10.45;100.00
24390;BME280;12510;56.468;-3.004;2023-04-01T03:40:32;99668.97;;;10.84;100.00
24390;BME280;12510;56.468;-3.004;2023-04-01T03:43:03;99680.97;;;10.70;100.00
24390;BME280;12510;56.468;-3.004;2023-04-01T03:45:34;99675.41;;;10.98;100.00
24390;BME280;12510;56.468;-3.004;2023-04-01T03:48:00;99676.91;;;11.01;100.00
24390;BME280;12510;56.468;-3.004;2023-04-01T03:50:27;99680.50;;;12.07;100.00
24390;BME280;12510;56.468;-3.004;2023-04-01T03:52:53;99675.34;;;12.22;100.00
24390;BME280;12510;56.468;-3.004;2023-04-01T03:55:20;99686.34;;;11.20;100.00
24390;BME280;12510;56.468;-3.004;2023-04-01T03:57:47;99686.31;;;11.78;100.00
24390;BME280;12510;56.468;-3.004;2023-04-01T04:00:18;99689.44;;;11.98;100.00
24390;BME280;12510;56.468;-3.004;2023-04-01T04:02:48;99682.91;;;12.25;100.00
24390;BME280;12510;56.468;-3.004;2023-04-01T04:05:20;99692.97;;;12.30;100.00
24390;BME280;12510;56.468;-3.004;2023-04-01T04:07:47;99691.63;;;12.34;100.00
24390;BME280;12510;56.468;-3.004;2023-04-01T04:10:13;99695.81;;;12.12;100.00
24390;BME280;12510;56.468;-3.004;2023-04-01T04:12:39;99701.03;;;12.36;100.00
24390;BME280;12510;56.468;-3.004;2023-04-01T04:15:07;99703.81;;;11.46;100.00
24390;BME280;12510;56.468;-3.004;2023-04-01T04:17:34;99714.38;;;10.78;100.00
24390;BME280;12510;56.468;-3.004;2023-04-01T04:20:02;99720.19;;;10.98;100.00
24390;BME280;12510;56.468;-3.004;2023-04-01T04:22:29;99722.09;;;10.71;100.00
24390;BME280;12510;56.468;-3.004;2023-04-01T04:24:55;99720.19;;;10.47;100.00
24390;BME280;12510;56.468;-3.004;2023-04-01T04:27:22;99721.00;;;10.82;100.00
24390;BME280;12510;56.468;-3.004;2023-04-01T04:29:57;99724.28;;;10.84;100.00
24390;BME280;12510;56.468;-3.004;2023-04-01T04:32:25;99728.75;;;10.84;100.00
24390;BME280;12510;56.468;-3.004;2023-04-01T04:34:51;99730.31;;;10.68;100.00
24390;BME280;12510;56.468;-3.004;2023-04-01T04:37:19;99736.31;;;10.87;100.00
24390;BME280;12510;56.468;-3.004;2023-04-01T04:39:45;99735.94;;;11.66;100.00
24390;BME280;12510;56.468;-3.004;2023-04-01T04:42:12;99735.09;;;11.57;100.00
24390;BME280;12510;56.468;-3.004;2023-04-01T04:44:39;99734.44;;;11.63;100.00
24390;BME280;12510;56.468;-3.004;2023-04-01T04:47:06;99739.72;;;11.63;100.00
24390;BME280;12510;56.468;-3.004;2023-04-01T04:49:32;99741.72;;;11.69;100.00
24390;BME280;12510;56.468;-3.004;2023-04-01T04:52:03;99750.38;;;10.09;100.00
24390;BME280;12510;56.468;-3.004;2023-04-01T04:54:29;99760.38;;;9.06;100.00
24390;BME280;12510;56.468;-3.004;2023-04-01T04:56:58;99757.09;;;10.98;100.00
24390;BME280;12510;56.468;-3.004;2023-04-01T04:59:27;99763.66;;;10.94;100.00
24390;BME280;12510;56.468;-3.004;2023-04-01T05:02:22;99763.00;;;10.92;100.00
24390;BME280;12510;56.468;-3.004;2023-04-01T05:04:49;99770.16;;;10.65;100.00
24390;BME280;12510;56.468;-3.004;2023-04-01T05:07:15;99775.47;;;10.82;100.00
24390;BME280;12510;56.468;-3.004;2023-04-01T05:09:42;99772.06;;;10.89;100.00
24390;BME280;12510;56.468;-3.004;2023-04-01T05:12:08;99777.97;;;10.92;100.00
24390;BME280;12510;56.468;-3.004;2023-04-01T05:14:54;99780.41;;;10.85;100.00
24390;BME280;12510;56.468;-3.004;2023-04-01T05:17:21;99783.72;;;10.87;100.00
24390;BME280;12510;56.468;-3.004;2023-04-01T05:19:47;99787.38;;;10.94;100.00
24390;BME280;12510;56.468;-3.004;2023-04-01T05:22:14;99792.22;;;10.72;100.00
24390;BME280;12510;56.468;-3.004;2023-04-01T05:24:41;99784.31;;;10.72;100.00
24390;BME280;12510;56.468;-3.004;2023-04-01T05:27:08;99791.75;;;10.69;100.00
24390;BME280;12510;56.468;-3.004;2023-04-01T05:29:38;99800.25;;;10.63;100.00
24390;BME280;12510;56.468;-3.004;2023-04-01T05:32:07;99798.78;;;10.68;100.00
24390;BME280;12510;56.468;-3.004;2023-04-01T05:34:34;99808.41;;;10.25;100.00
24390;BME280;12510;56.468;-3.004;2023-04-01T05:37:00;99798.44;;;10.63;100.00
24390;BME280;12510;56.468;-3.004;2023-04-01T05:39:27;99803.56;;;10.38;100.00
24390;BME280;12510;56.468;-3.004;2023-04-01T05:41:54;99801.97;;;10.80;100.00
24390;BME280;12510;56.468;-3.004;2023-04-01T05:44:21;99798.56;;;10.88;100.00
24390;BME280;12510;56.468;-3.004;2023-04-01T05:47:04;99806.44;;;10.80;100.00
24390;BME280;12510;56.468;-3.004;2023-04-01T05:49:30;99815.34;;;10.87;100.00
24390;BME280;12510;56.468;-3.004;2023-04-01T05:51:57;99823.13;;;10.62;100.00
24390;BME280;12510;56.468;-3.004;2023-04-01T05:54:23;99822.09;;;10.89;100.00
24390;BME280;12510;56.468;-3.004;2023-04-01T05:56:50;99824.31;;;11.02;100.00
24390;BME280;12510;56.468;-3.004;2023-04-01T05:59:17;99837.72;;;10.83;100.00
24390;BME280;12510;56.468;-3.004;2023-04-01T06:01:43;99832.78;;;10.80;100.00
24390;BME280;12510;56.468;-3.004;2023-04-01T06:04:16;99841.97;;;10.49;100.00
24390;BME280;12510;56.468;-3.004;2023-04-01T06:06:43;99854.50;;;9.75;100.00
24390;BME280;12510;56.468;-3.004;2023-04-01T06:09:17;99846.91;;;10.52;100.00
24390;BME280;12510;56.468;-3.004;2023-04-01T06:18:10;99851.91;;;11.41;100.00
24390;BME280;12510;56.468;-3.004;2023-04-01T06:23:13;99866.19;;;11.22;100.00
24390;BME280;12510;56.468;-3.004;2023-04-01T06:31:34;99861.38;;;12.51;100.00
24390;BME280;12510;56.468;-3.004;2023-04-01T06:34:30;99861.72;;;12.56;100.00
24390;BME280;12510;56.468;-3.004;2023-04-01T06:42:48;99868.53;;;12.34;100.00
24390;BME280;12510;56.468;-3.004;2023-04-01T06:45:55;99875.28;;;12.45;100.00
24390;BME280;12510;56.468;-3.004;2023-04-01T06:55:02;99897.28;;;11.18;100.00
24390;BME280;12510;56.468;-3.004;2023-04-01T06:58:10;99893.66;;;11.11;100.00
24390;BME280;12510;56.468;-3.004;2023-04-01T07:00:41;99913.06;;;10.13;100.00
24390;BME280;12510;56.468;-3.004;2023-04-01T07:03:20;99912.63;;;11.15;100.00
24390;BME280;12510;56.468;-3.004;2023-04-01T07:05:48;99914.69;;;11.37;100.00
24390;BME280;12510;56.468;-3.004;2023-04-01T07:08:23;99913.88;;;11.45;100.00
24390;BME280;12510;56.468;-3.004;2023-04-01T07:11:26;99928.81;;;9.95;100.00
24390;BME280;12510;56.468;-3.004;2023-04-01T07:16:56;99940.38;;;10.75;100.00
24390;BME280;12510;56.468;-3.004;2023-04-01T07:19:54;99932.94;;;10.70;100.00
24390;BME280;12510;56.468;-3.004;2023-04-01T07:25:18;99944.31;;;8.87;100.00
24390;BME280;12510;56.468;-3.004;2023-04-01T07:28:00;99940.75;;;11.14;100.00
24390;BME280;12510;56.468;-3.004;2023-04-01T07:30:39;99954.16;;;9.50;100.00
24390;BME280;12510;56.468;-3.004;2023-04-01T07:33:39;99956.13;;;9.01;100.00
24390;BME280;12510;56.468;-3.004;2023-04-01T07:36:23;99954.81;;;11.23;100.00
24390;BME280;12510;56.468;-3.004;2023-04-01T07:42:37;99953.66;;;12.28;100.00
24390;BME280;12510;56.468;-3.004;2023-04-01T08:01:00;99990.72;;;10.71;100.00
24390;BME280;12510;56.468;-3.004;2023-04-01T08:03:51;99987.84;;;11.78;100.00
24390;BME280;12510;56.468;-3.004;2023-04-01T08:06:32;99989.94;;;12.26;100.00
24390;BME280;12510;56.468;-3.004;2023-04-01T08:12:04;100004.09;;;9.50;100.00
24390;BME280;12510;56.468;-3.004;2023-04-01T08:15:13;100010.88;;;10.27;100.00
24390;BME280;12510;56.468;-3.004;2023-04-01T08:18:11;100023.03;;;9.82;100.00
24390;BME280;12510;56.468;-3.004;2023-04-01T08:20:58;100021.53;;;9.51;100.00
24390;BME280;12510;56.468;-3.004;2023-04-01T08:23:31;100024.13;;;9.89;100.00
24390;BME280;12510;56.468;-3.004;2023-04-01T08:31:29;100040.63;;;10.99;100.00
24390;BME280;12510;56.468;-3.004;2023-04-01T08:33:57;100043.53;;;10.70;100.00
24390;BME280;12510;56.468;-3.004;2023-04-01T08:36:29;100050.53;;;11.84;100.00
24390;BME280;12510;56.468;-3.004;2023-04-01T08:39:31;100060.88;;;9.99;100.00
24390;BME280;12510;56.468;-3.004;2023-04-01T08:50:46;100073.41;;;12.18;100.00
24390;BME280;12510;56.468;-3.004;2023-04-01T08:56:23;100081.59;;;11.99;100.00
24390;BME280;12510;56.468;-3.004;2023-04-01T09:07:57;100103.31;;;10.14;100.00
24390;BME280;12510;56.468;-3.004;2023-04-01T09:13:20;100108.66;;;10.22;100.00
24390;BME280;12510;56.468;-3.004;2023-04-01T09:18:41;100124.91;;;9.80;100.00
24390;BME280;12510;56.468;-3.004;2023-04-01T09:24:20;100133.19;;;9.08;100.00
24390;BME280;12510;56.468;-3.004;2023-04-01T09:27:13;100136.34;;;9.51;100.00
24390;BME280;12510;56.468;-3.004;2023-04-01T09:30:10;100139.88;;;10.17;100.00
24390;BME280;12510;56.468;-3.004;2023-04-01T09:40:57;100149.03;;;10.68;100.00
24390;BME280;12510;56.468;-3.004;2023-04-01T10:01:39;100182.06;;;10.81;100.00
24390;BME280;12510;56.468;-3.004;2023-04-01T10:04:41;100179.81;;;10.40;100.00
24390;BME280;12510;56.468;-3.004;2023-04-01T10:15:40;100187.50;;;12.98;100.00
24390;BME280;12510;56.468;-3.004;2023-04-01T10:26:59;100185.25;;;13.36;100.00
24390;BME280;12510;56.468;-3.004;2023-04-01T10:33:24;100206.59;;;12.24;100.00
24390;BME280;12510;56.468;-3.004;2023-04-01T10:39:07;100228.34;;;10.83;100.00
24390;BME280;12510;56.468;-3.004;2023-04-01T10:54:18;100233.09;;;12.91;100.00
24390;BME280;12510;56.468;-3.004;2023-04-01T10:57:31;100242.34;;;12.96;100.00
24390;BME280;12510;56.468;-3.004;2023-04-01T11:14:54;100270.94;;;13.08;100.00
24390;BME280;12510;56.468;-3.004;2023-04-01T11:18:25;100277.50;;;12.88;100.00
24390;BME280;12510;56.468;-3.004;2023-04-01T11:21:11;100271.28;;;13.14;100.00
24390;BME280;12510;56.468;-3.004;2023-04-01T11:29:25;100300.81;;;12.50;100.00
24390;BME280;12510;56.468;-3.004;2023-04-01T11:32:25;100300.94;;;11.78;100.00
24390;BME280;12510;56.468;-3.004;2023-04-01T11:44:14;100321.75;;;12.86;100.00
24390;BME280;12510;56.468;-3.004;2023-04-01T11:50:04;100326.44;;;12.66;100.00
24390;BME280;12510;56.468;-3.004;2023-04-01T11:53:10;100334.38;;;13.00;100.00
24390;BME280;12510;56.468;-3.004;2023-04-01T12:01:08;100353.00;;;11.76;100.00
24390;BME280;12510;56.468;-3.004;2023-04-01T12:09:44;100360.03;;;13.16;100.00
24390;BME280;12510;56.468;-3.004;2023-04-01T12:12:40;100387.50;;;11.18;100.00
24390;BME280;12510;56.468;-3.004;2023-04-01T12:19:02;100377.53;;;13.09;100.00
24390;BME280;12510;56.468;-3.004;2023-04-01T12:21:41;100387.31;;;12.82;100.00
24390;BME280;12510;56.468;-3.004;2023-04-01T12:27:41;100383.22;;;13.73;100.00
24390;BME280;12510;56.468;-3.004;2023-04-01T12:41:43;100397.44;;;14.38;100.00
24390;BME280;12510;56.468;-3.004;2023-04-01T12:53:00;100406.94;;;15.14;100.00
24390;BME280;12510;56.468;-3.004;2023-04-01T13:01:10;100400.47;;;15.48;100.00
24390;BME280;12510;56.468;-3.004;2023-04-01T13:09:33;100435.09;;;15.15;100.00
24390;BME280;12510;56.468;-3.004;2023-04-01T13:15:23;100426.75;;;14.78;100.00
24390;BME280;12510;56.468;-3.004;2023-04-01T13:33:50;100480.78;;;13.77;100.00
24390;BME280;12510;56.468;-3.004;2023-04-01T13:44:31;100503.56;;;13.53;100.00
24390;BME280;12510;56.468;-3.004;2023-04-01T13:50:20;100497.38;;;13.87;100.00
24390;BME280;12510;56.468;-3.004;2023-04-01T13:53:21;100511.75;;;13.84;100.00
24390;BME280;12510;56.468;-3.004;2023-04-01T13:55:49;100497.94;;;14.32;100.00
24390;BME280;12510;56.468;-3.004;2023-04-01T14:12:06;100522.63;;;14.40;100.00
24390;BME280;12510;56.468;-3.004;2023-04-01T14:34:26;100559.28;;;14.02;100.00
24390;BME280;12510;56.468;-3.004;2023-04-01T14:37:48;100565.13;;;14.14;100.00
24390;BME280;12510;56.468;-3.004;2023-04-01T14:40:37;100559.97;;;14.04;100.00
24390;BME280;12510;56.468;-3.004;2023-04-01T14:48:48;100585.41;;;13.54;100.00
24390;BME280;12510;56.468;-3.004;2023-04-01T14:59:26;100597.63;;;13.90;100.00
24390;BME280;12510;56.468;-3.004;2023-04-01T15:04:44;100605.34;;;14.10;100.00
24390;BME280;12510;56.468;-3.004;2023-04-01T15:18:41;100627.59;;;13.90;100.00
24390;BME280;12510;56.468;-3.004;2023-04-01T15:21:13;100629.97;;;13.75;100.00
24390;BME280;12510;56.468;-3.004;2023-04-01T15:32:02;100641.84;;;14.40;100.00
24390;BME280;12510;56.468;-3.004;2023-04-01T15:35:03;100650.13;;;14.37;100.00
24390;BME280;12510;56.468;-3.004;2023-04-01T15:37:56;100659.78;;;14.55;100.00
24390;BME280;12510;56.468;-3.004;2023-04-01T15:40:31;100664.31;;;14.71;100.00
24390;BME280;12510;56.468;-3.004;2023-04-01T15:49:27;100669.28;;;14.23;100.00
24390;BME280;12510;56.468;-3.004;2023-04-01T15:57:50;100667.50;;;14.91;100.00
24390;BME280;12510;56.468;-3.004;2023-04-01T16:06:17;100678.13;;;14.40;100.00
24390;BME280;12510;56.468;-3.004;2023-04-01T16:15:00;100691.03;;;15.02;100.00
24390;BME280;12510;56.468;-3.004;2023-04-01T16:21:08;100693.16;;;14.39;100.00
24390;BME280;12510;56.468;-3.004;2023-04-01T16:26:40;100711.00;;;13.95;100.00
24390;BME280;12510;56.468;-3.004;2023-04-01T16:29:43;100703.41;;;14.69;100.00
24390;BME280;12510;56.468;-3.004;2023-04-01T16:32:20;100721.31;;;14.06;100.00
24390;BME280;12510;56.468;-3.004;2023-04-01T16:37:34;100740.78;;;14.23;100.00
24390;BME280;12510;56.468;-3.004;2023-04-01T16:42:53;100744.69;;;13.84;100.00
24390;BME280;12510;56.468;-3.004;2023-04-01T16:50:58;100753.94;;;13.80;100.00
24390;BME280;12510;56.468;-3.004;2023-04-01T16:53:31;100752.69;;;13.93;100.00
24390;BME280;12510;56.468;-3.004;2023-04-01T17:01:55;100761.25;;;14.13;100.00
24390;BME280;12510;56.468;-3.004;2023-04-01T17:04:41;100774.41;;;13.96;100.00
24390;BME280;12510;56.468;-3.004;2023-04-01T17:07:25;100780.06;;;13.83;100.00
24390;BME280;12510;56.468;-3.004;2023-04-01T17:10:26;100780.97;;;13.92;100.00
24390;BME280;12510;56.468;-3.004;2023-04-01T17:24:46;100810.00;;;13.39;100.00
24390;BME280;12510;56.468;-3.004;2023-04-01T17:27:23;100809.34;;;13.28;100.00
24390;BME280;12510;56.468;-3.004;2023-04-01T17:29:58;100823.22;;;13.30;100.00
24390;BME280;12510;56.468;-3.004;2023-04-01T17:40:53;100839.25;;;13.28;100.00
24390;BME280;12510;56.468;-3.004;2023-04-01T17:52:31;100871.59;;;12.84;100.00
24390;BME280;12510;56.468;-3.004;2023-04-01T17:57:54;100876.56;;;12.97;100.00
24390;BME280;12510;56.468;-3.004;2023-04-01T18:00:36;100886.84;;;13.00;100.00
24390;BME280;12510;56.468;-3.004;2023-04-01T18:03:28;100884.53;;;13.25;100.00
24390;BME280;12510;56.468;-3.004;2023-04-01T18:22:58;100926.75;;;13.17;100.00
24390;BME280;12510;56.468;-3.004;2023-04-01T18:25:38;100917.59;;;13.39;100.00
24390;BME280;12510;56.468;-3.004;2023-04-01T18:28:32;100914.13;;;13.01;100.00
24390;BME280;12510;56.468;-3.004;2023-04-01T18:36:26;100935.53;;;13.45;100.00
24390;BME280;12510;56.468;-3.004;2023-04-01T18:42:29;100944.06;;;13.29;100.00
24390;BME280;12510;56.468;-3.004;2023-04-01T18:47:44;100959.63;;;13.42;100.00
24390;BME280;12510;56.468;-3.004;2023-04-01T18:53:28;100966.56;;;13.05;100.00
24390;BME280;12510;56.468;-3.004;2023-04-01T18:55:59;100977.66;;;13.19;100.00
24390;BME280;12510;56.468;-3.004;2023-04-01T18:58:50;100972.06;;;13.22;100.00
24390;BME280;12510;56.468;-3.004;2023-04-01T19:01:52;100983.84;;;13.00;100.00
24390;BME280;12510;56.468;-3.004;2023-04-01T19:04:30;100985.94;;;12.96;100.00
24390;BME280;12510;56.468;-3.004;2023-04-01T19:07:19;100986.03;;;13.04;100.00
24390;BME280;12510;56.468;-3.004;2023-04-01T19:09:49;100992.38;;;12.84;100.00
24390;BME280;12510;56.468;-3.004;2023-04-01T19:15:22;101006.81;;;12.89;100.00
24390;BME280;12510;56.468;-3.004;2023-04-01T19:20:31;101018.06;;;13.01;100.00
24390;BME280;12510;56.468;-3.004;2023-04-01T19:26:05;101036.94;;;13.16;100.00
24390;BME280;12510;56.468;-3.004;2023-04-01T19:28:43;101033.06;;;13.11;100.00
24390;BME280;12510;56.468;-3.004;2023-04-01T19:31:38;101042.69;;;12.92;100.00
24390;BME280;12510;56.468;-3.004;2023-04-01T19:36:50;101053.84;;;12.96;100.00
24390;BME280;12510;56.468;-3.004;2023-04-01T19:40:35;101061.31;;;13.00;100.00
24390;BME280;12510;56.468;-3.004;2023-04-01T19:42:52;101068.44;;;11.81;100.00
24390;BME280;12510;56.468;-3.004;2023-04-01T19:48:24;101069.72;;;12.66;100.00
24390;BME280;12510;56.468;-3.004;2023-04-01T19:51:07;101071.22;;;12.79;100.00
24390;BME280;12510;56.468;-3.004;2023-04-01T19:53:53;101076.53;;;12.79;100.00
24390;BME280;12510;56.468;-3.004;2023-04-01T19:56:39;101083.47;;;12.60;100.00
24390;BME280;12510;56.468;-3.004;2023-04-01T19:59:26;101088.78;;;12.70;100.00
24390;BME280;12510;56.468;-3.004;2023-04-01T20:04:43;101094.03;;;12.50;100.00
24390;BME280;12510;56.468;-3.004;2023-04-01T20:07:27;101111.00;;;12.48;100.00
24390;BME280;12510;56.468;-3.004;2023-04-01T20:10:08;101104.47;;;12.62;100.00
24390;BME280;12510;56.468;-3.004;2023-04-01T20:12:51;101112.13;;;12.65;100.00
24390;BME280;12510;56.468;-3.004;2023-04-01T20:15:30;101103.50;;;12.72;100.00
24390;BME280;12510;56.468;-3.004;2023-04-01T20:18:00;101118.53;;;12.62;100.00
24390;BME280;12510;56.468;-3.004;2023-04-01T20:20:29;101117.41;;;12.65;100.00
24390;BME280;12510;56.468;-3.004;2023-04-01T20:26:01;101126.47;;;12.62;100.00
24390;BME280;12510;56.468;-3.004;2023-04-01T20:28:36;101128.53;;;12.88;100.00
24390;BME280;12510;56.468;-3.004;2023-04-01T20:31:24;101130.50;;;12.66;100.00
24390;BME280;12510;56.468;-3.004;2023-04-01T20:45:30;101147.69;;;12.51;100.00
24390;BME280;12510;56.468;-3.004;2023-04-01T20:51:05;101146.06;;;12.69;100.00
24390;BME280;12510;56.468;-3.004;2023-04-01T21:05:29;101164.41;;;12.51;100.00
24390;BME280;12510;56.468;-3.004;2023-04-01T21:10:57;101176.38;;;12.65;100.00
24390;BME280;12510;56.468;-3.004;2023-04-01T21:19:02;101185.97;;;12.66;100.00
24390;BME280;12510;56.468;-3.004;2023-04-01T21:21:49;101190.00;;;12.61;100.00
24390;BME280;12510;56.468;-3.004;2023-04-01T21:42:02;101209.03;;;12.54;100.00
24390;BME280;12510;56.468;-3.004;2023-04-01T21:55:43;101220.13;;;12.48;100.00
24390;BME280;12510;56.468;-3.004;2023-04-01T22:07:02;101231.88;;;12.24;100.00
24390;BME280;12510;56.468;-3.004;2023-04-01T22:09:39;101232.97;;;12.22;100.00
24390;BME280;12510;56.468;-3.004;2023-04-01T22:12:13;101239.66;;;12.26;100.00
24390;BME280;12510;56.468;-3.004;2023-04-01T22:14:57;101247.63;;;12.05;100.00
24390;BME280;12510;56.468;-3.004;2023-04-01T22:17:33;101245.13;;;11.92;100.00
24390;BME280;12510;56.468;-3.004;2023-04-01T22:31:21;101258.91;;;12.07;100.00
24390;BME280;12510;56.468;-3.004;2023-04-01T22:34:16;101267.38;;;12.11;100.00
24390;BME280;12510;56.468;-3.004;2023-04-01T22:37:13;101264.41;;;12.04;100.00
24390;BME280;12510;56.468;-3.004;2023-04-01T22:40:22;101264.53;;;12.23;100.00
24390;BME280;12510;56.468;-3.004;2023-04-01T22:43:15;101273.09;;;12.16;100.00
24390;BME280;12510;56.468;-3.004;2023-04-01T22:48:48;101281.97;;;12.15;100.00
24390;BME280;12510;56.468;-3.004;2023-04-01T22:54:36;101282.88;;;12.25;100.00